Privodino, Russia
Current Conditions -  °F | °C
As of 2:30 AM on Sunday 23 Nov 2014 (Local Time) from UUYY Reporting Station
Clear Clear  
Wind Chill: -20°   Ceiling: Unl
Heat Index: -2°   Visibility: 6mi
Dew Point: -8°   Wind: 11mph
Humidity: 78%   Direction: 20°NNE
Pressure: 30.39"   Gusts: NA
Location:  61.08°N, 46.5°E
Report Text: UUYY 222330Z 02005MPS CAVOK M19/M22 Q1029 TEMPO 2000 SHSNSCT007CB 0145//41 RMK QFE762/1017
Loading
Personal Weather Stations






























Interactive Weather Map New forecast layout! Learn more

10-Day Weather Forecast

Advertisements
Track Severe Weather on mobile